Masonic Park, Colorado
Current Conditions -  °F | °C
As of 6:50 PM on Sunday 21 Dec 2014 (Local Time) from KRCV Reporting Station
Broken Clouds Broken Clouds  
Wind Chill: 24°   Ceiling: 6500
Heat Index: 36°   Visibility: 10mi
Dew Point: 29°   Wind: 22mph
Humidity: 78%   Direction: 260°W
Pressure: 29.8"   Gusts: 29mph
Location:  37.6617°N, 106.617°W
Report Text: KRCV 220150Z AUTO 26019G25KT 10SM SCT034 SCT041 BKN065 02/M01 A2980 RMK AO2 T00201015
Loading
Personal Weather Stations






























Interactive Weather Map New forecast layout! Learn more

10-Day Weather Forecast

Advertisements
Track Severe Weather on mobile